createdAt,value
2022-11-28T00:00:55.351Z,14.40
2022-11-28T00:03:21.763Z,13.74
2022-11-28T00:05:48.258Z,13.73
2022-11-28T00:08:14.634Z,13.57
2022-11-28T00:10:40.975Z,13.82
2022-11-28T00:13:07.317Z,13.35
2022-11-28T00:15:33.827Z,13.01
2022-11-28T00:18:01.177Z,12.48
2022-11-28T00:20:27.561Z,12.71
2022-11-28T00:22:54.371Z,12.31
2022-11-28T00:25:21.781Z,12.22
2022-11-28T00:27:48.330Z,11.56
2022-11-28T00:30:15.071Z,11.16
2022-11-28T00:32:41.436Z,10.32
2022-11-28T00:35:07.808Z,10.82
2022-11-28T00:37:34.199Z,10.49
2022-11-28T00:40:00.762Z,10.30
2022-11-28T00:42:27.621Z,9.74
2022-11-28T00:44:54.085Z,9.34
2022-11-28T00:47:20.431Z,9.87
2022-11-28T00:49:46.853Z,9.56
2022-11-28T00:52:15.467Z,8.68
2022-11-28T00:54:42.416Z,9.05
2022-11-28T00:57:08.830Z,8.95
2022-11-28T00:59:35.293Z,8.61
2022-11-28T01:02:01.700Z,8.36
2022-11-28T01:04:28.096Z,8.20
2022-11-28T01:06:54.481Z,8.78
2022-11-28T01:09:20.981Z,10.11
2022-11-28T01:11:47.354Z,9.82
2022-11-28T01:14:13.965Z,9.93
2022-11-28T01:16:40.736Z,8.98
2022-11-28T01:19:07.224Z,8.60
2022-11-28T01:21:33.575Z,8.13
2022-11-28T01:23:59.897Z,8.05
2022-11-28T01:26:26.239Z,7.96
2022-11-28T01:28:52.707Z,8.11
2022-11-28T01:31:19.107Z,7.91
2022-11-28T01:33:45.504Z,7.96
2022-11-28T01:36:11.994Z,8.07
2022-11-28T01:38:38.375Z,7.51
2022-11-28T01:41:04.864Z,6.24
2022-11-28T01:43:31.235Z,7.57
2022-11-28T01:45:57.613Z,8.33
2022-11-28T01:48:24.089Z,9.21
2022-11-28T01:50:50.416Z,9.29
2022-11-28T01:53:16.941Z,9.74
2022-11-28T01:55:45.744Z,9.80
2022-11-28T01:58:12.130Z,11.68
2022-11-28T02:00:38.607Z,11.90
2022-11-28T02:03:04.997Z,11.86
2022-11-28T02:05:31.374Z,11.78
2022-11-28T02:07:57.834Z,12.10
2022-11-28T02:10:24.340Z,11.93
2022-11-28T02:12:51.126Z,11.91
2022-11-28T02:15:17.581Z,11.38
2022-11-28T02:17:43.952Z,10.90
2022-11-28T02:20:10.342Z,11.09
2022-11-28T02:22:36.770Z,11.36
2022-11-28T02:25:03.107Z,11.17
2022-11-28T02:27:29.592Z,10.90
2022-11-28T02:29:55.947Z,11.04
2022-11-28T02:32:22.507Z,10.60
2022-11-28T02:34:49.167Z,11.19
2022-11-28T02:37:15.696Z,10.55
2022-11-28T02:39:42.180Z,11.44
2022-11-28T02:42:08.563Z,11.70
2022-11-28T02:44:35.016Z,11.50
2022-11-28T02:47:01.462Z,11.52
2022-11-28T02:49:27.893Z,11.73
2022-11-28T02:51:54.238Z,11.92
2022-11-28T02:54:20.637Z,11.85
2022-11-28T02:56:47.216Z,11.97
2022-11-28T02:59:13.968Z,11.82
2022-11-28T03:01:40.532Z,11.69
2022-11-28T03:04:07.018Z,11.27
2022-11-28T03:06:33.846Z,10.89
2022-11-28T03:09:00.236Z,11.62
2022-11-28T03:11:26.699Z,11.39
2022-11-28T03:13:53.054Z,11.54
2022-11-28T03:16:19.558Z,11.68
2022-11-28T03:18:45.988Z,10.97
2022-11-28T03:21:12.540Z,10.77
2022-11-28T03:23:40.980Z,10.62
2022-11-28T03:26:07.530Z,10.90
2022-11-28T03:28:33.872Z,11.03
2022-11-28T03:31:00.456Z,11.50
2022-11-28T03:33:27.225Z,11.11
2022-11-28T03:35:55.709Z,11.26
2022-11-28T03:38:22.490Z,11.29
2022-11-28T03:40:48.872Z,11.23
2022-11-28T03:43:15.340Z,10.89
2022-11-28T03:45:42.178Z,10.80
2022-11-28T03:48:08.869Z,10.62
2022-11-28T03:50:35.600Z,10.85
2022-11-28T03:53:02.346Z,11.51
2022-11-28T03:55:28.771Z,11.19
2022-11-28T03:57:55.139Z,11.26
2022-11-28T04:00:21.561Z,11.32
2022-11-28T04:02:48.093Z,11.69
2022-11-28T04:05:14.563Z,11.02
2022-11-28T04:07:41.019Z,10.73
2022-11-28T04:10:07.578Z,11.35
2022-11-28T04:12:33.973Z,10.45
2022-11-28T04:15:02.740Z,10.33
2022-11-28T04:17:29.194Z,10.87
2022-11-28T04:19:55.653Z,10.04
2022-11-28T04:22:22.291Z,11.01
2022-11-28T04:24:48.731Z,10.86
2022-11-28T04:27:15.085Z,10.49
2022-11-28T04:29:41.438Z,10.53
2022-11-28T04:32:07.848Z,10.77
2022-11-28T04:34:34.193Z,10.63
2022-11-28T04:37:02.463Z,10.22
2022-11-28T04:39:31.940Z,10.34
2022-11-28T04:41:58.321Z,10.28
2022-11-28T04:44:24.658Z,10.09
2022-11-28T04:46:51.429Z,10.83
2022-11-28T04:49:18.020Z,10.83
2022-11-28T04:51:44.356Z,10.36
2022-11-28T04:54:11.074Z,10.76
2022-11-28T04:56:39.974Z,11.10
2022-11-28T04:59:08.956Z,11.31
2022-11-28T05:01:35.813Z,10.66
2022-11-28T05:04:02.366Z,11.13
2022-11-28T05:06:28.818Z,10.72
2022-11-28T05:08:55.199Z,10.91
2022-11-28T05:11:21.575Z,11.14
2022-11-28T05:13:47.942Z,10.26
2022-11-28T05:16:14.318Z,10.38
2022-11-28T05:18:40.670Z,10.03
2022-11-28T05:21:07.190Z,9.77
2022-11-28T05:23:33.743Z,10.12
2022-11-28T05:26:00.203Z,10.13
2022-11-28T05:28:26.649Z,10.18
2022-11-28T05:30:53.025Z,10.06
2022-11-28T05:33:20.169Z,10.06
2022-11-28T05:35:46.656Z,9.92
2022-11-28T05:38:13.754Z,9.86
2022-11-28T05:40:40.320Z,9.89
2022-11-28T05:43:06.826Z,10.47
2022-11-28T05:45:33.292Z,10.13
2022-11-28T05:47:59.711Z,10.26
2022-11-28T05:50:26.080Z,10.58
2022-11-28T05:52:53.183Z,9.85
2022-11-28T05:55:20.776Z,10.07
2022-11-28T05:57:47.151Z,9.94
2022-11-28T06:00:13.526Z,10.33
2022-11-28T06:02:39.919Z,9.84
2022-11-28T06:05:27.380Z,9.90
2022-11-28T06:07:52.737Z,9.55
2022-11-28T06:10:21.225Z,9.59
2022-11-28T06:12:47.606Z,10.26
2022-11-28T06:15:13.994Z,9.75
2022-11-28T06:17:40.383Z,10.15
2022-11-28T06:20:06.751Z,9.88
2022-11-28T06:22:33.216Z,10.34
2022-11-28T06:24:59.717Z,9.81
2022-11-28T06:27:26.355Z,10.89
2022-11-28T06:29:52.742Z,12.21
2022-11-28T06:32:22.170Z,11.64
2022-11-28T06:34:49.057Z,10.61
2022-11-28T06:37:15.911Z,11.03
2022-11-28T06:39:42.950Z,10.99
2022-11-28T06:42:09.513Z,10.73
2022-11-28T06:44:35.956Z,10.82
2022-11-28T06:47:02.526Z,10.13
2022-11-28T06:49:29.680Z,10.15
2022-11-28T06:51:56.230Z,9.85
2022-11-28T06:54:22.938Z,10.06
2022-11-28T06:56:50.530Z,9.78
2022-11-28T06:59:17.105Z,9.94
2022-11-28T07:01:43.635Z,9.54
2022-11-28T07:04:10.062Z,9.70
2022-11-28T07:06:36.770Z,9.58
2022-11-28T07:09:04.600Z,10.02
2022-11-28T07:11:30.986Z,9.72
2022-11-28T07:13:57.322Z,9.94
2022-11-28T07:16:23.800Z,9.91
2022-11-28T07:18:51.395Z,9.80
2022-11-28T07:21:17.807Z,10.03
2022-11-28T07:23:44.265Z,10.14
2022-11-28T07:26:10.795Z,10.11
2022-11-28T07:28:37.462Z,10.15
2022-11-28T07:31:04.106Z,10.07
2022-11-28T07:33:30.455Z,10.14
2022-11-28T07:35:57.154Z,10.42
2022-11-28T07:38:23.911Z,9.75
2022-11-28T07:40:50.372Z,10.18
2022-11-28T07:43:17.071Z,9.68
2022-11-28T07:46:00.144Z,9.79
2022-11-28T07:48:27.703Z,9.94
2022-11-28T07:50:54.289Z,9.58
2022-11-28T07:53:20.678Z,9.54
2022-11-28T07:55:47.215Z,9.39
2022-11-28T07:58:14.392Z,8.96
2022-11-28T08:00:41.867Z,8.91
2022-11-28T08:03:08.476Z,8.71
2022-11-28T08:05:34.880Z,8.06
2022-11-28T08:08:01.402Z,7.88
2022-11-28T08:10:27.811Z,7.95
2022-11-28T08:12:54.173Z,9.09
2022-11-28T08:15:20.684Z,8.93
2022-11-28T08:17:47.528Z,9.33
2022-11-28T08:20:13.912Z,8.95
2022-11-28T08:22:40.377Z,8.54
2022-11-28T08:25:07.800Z,8.28
2022-11-28T08:27:35.712Z,7.71
2022-11-28T08:30:02.101Z,7.81
2022-11-28T08:32:28.450Z,7.93
2022-11-28T08:34:54.799Z,7.58
2022-11-28T08:37:21.195Z,7.49
2022-11-28T08:39:47.619Z,7.76
2022-11-28T08:42:13.995Z,7.94
2022-11-28T08:44:40.381Z,7.56
2022-11-28T08:47:06.853Z,7.57
2022-11-28T08:49:33.339Z,8.33
2022-11-28T08:52:00.016Z,8.25
2022-11-28T08:54:26.539Z,8.45
2022-11-28T08:56:53.020Z,8.19
2022-11-28T08:59:19.588Z,8.57
2022-11-28T09:01:46.080Z,8.87
2022-11-28T09:04:12.790Z,8.96
2022-11-28T09:06:42.086Z,8.00
2022-11-28T09:09:08.755Z,8.23
2022-11-28T09:11:36.154Z,7.99
2022-11-28T09:14:02.857Z,8.65
2022-11-28T09:16:29.673Z,8.53
2022-11-28T09:18:56.600Z,8.31
2022-11-28T09:21:23.634Z,8.13
2022-11-28T09:23:50.015Z,8.09
2022-11-28T09:26:17.483Z,7.41
2022-11-28T09:28:44.135Z,7.37
2022-11-28T09:31:10.557Z,7.00
2022-11-28T09:33:37.093Z,7.30
2022-11-28T09:36:03.457Z,7.43
2022-11-28T09:38:29.803Z,7.45
2022-11-28T09:40:56.203Z,8.00
2022-11-28T09:43:30.381Z,8.24
2022-11-28T09:45:56.836Z,8.04
2022-11-28T09:48:23.340Z,7.76
2022-11-28T09:50:50.260Z,7.90
2022-11-28T09:53:17.331Z,7.81
2022-11-28T09:55:44.175Z,7.91
2022-11-28T09:58:10.860Z,8.27
2022-11-28T10:00:37.306Z,8.26
2022-11-28T10:03:03.885Z,8.27
2022-11-28T10:05:31.262Z,9.50
2022-11-28T10:07:57.667Z,9.86
2022-11-28T10:10:24.163Z,9.43
2022-11-28T10:12:50.804Z,8.90
2022-11-28T10:15:17.175Z,8.98
2022-11-28T10:17:43.713Z,8.68
2022-11-28T10:20:10.420Z,8.99
2022-11-28T10:22:36.942Z,9.31
2022-11-28T10:25:03.320Z,9.16
2022-11-28T10:27:30.695Z,8.67
2022-11-28T10:29:57.079Z,8.97
2022-11-28T10:32:25.002Z,8.61
2022-11-28T10:34:54.436Z,9.22
2022-11-28T10:37:21.159Z,8.93
2022-11-28T10:39:47.761Z,9.73
2022-11-28T10:42:14.290Z,9.44
2022-11-28T10:44:40.863Z,8.96
2022-11-28T10:47:08.255Z,8.69
2022-11-28T10:49:34.935Z,8.86
2022-11-28T10:52:01.497Z,9.42
2022-11-28T10:54:28.058Z,8.79
2022-11-28T10:56:54.390Z,8.70
2022-11-28T10:59:20.854Z,8.89
2022-11-28T11:01:50.131Z,9.04
2022-11-28T11:04:17.026Z,8.71
2022-11-28T11:07:07.131Z,8.68
2022-11-28T11:09:33.133Z,8.14
2022-11-28T11:11:59.880Z,7.31
2022-11-28T11:14:26.496Z,6.44
2022-11-28T11:16:52.955Z,6.14
2022-11-28T11:19:19.451Z,6.16
2022-11-28T11:21:46.672Z,5.66
2022-11-28T11:24:13.074Z,6.34
2022-11-28T11:26:40.062Z,7.27
2022-11-28T11:29:06.801Z,7.04
2022-11-28T11:31:33.606Z,7.12
2022-11-28T11:34:00.094Z,6.89
2022-11-28T11:36:26.733Z,6.76
2022-11-28T11:38:53.307Z,7.28
2022-11-28T11:41:19.708Z,6.86
2022-11-28T11:43:46.171Z,6.88
2022-11-28T11:46:12.590Z,6.79
2022-11-28T11:48:39.345Z,6.09
2022-11-28T11:51:05.792Z,4.31
2022-11-28T11:53:32.191Z,3.04
2022-11-28T11:56:01.473Z,2.21
2022-11-28T11:58:28.283Z,2.16
2022-11-28T12:00:54.655Z,1.95
2022-11-28T12:03:21.300Z,2.02
2022-11-28T12:06:12.782Z,1.90
2022-11-28T12:08:35.615Z,1.75
2022-11-28T12:11:02.072Z,1.84
2022-11-28T12:13:29.472Z,2.01
2022-11-28T12:15:56.087Z,2.03
2022-11-28T12:18:22.722Z,1.53
2022-11-28T12:20:49.097Z,1.80
2022-11-28T12:23:17.516Z,1.77
2022-11-28T12:25:44.223Z,1.81
2022-11-28T12:28:10.546Z,1.76
2022-11-28T12:30:39.116Z,1.45
2022-11-28T12:33:08.461Z,1.41
2022-11-28T12:35:34.855Z,1.13
2022-11-28T12:38:16.591Z,1.25
2022-11-28T12:40:43.032Z,1.19
2022-11-28T12:43:09.653Z,1.12
2022-11-28T12:45:36.135Z,1.07
2022-11-28T12:48:02.583Z,1.17
2022-11-28T12:50:29.167Z,1.51
2022-11-28T12:52:55.512Z,1.34
2022-11-28T12:55:24.703Z,1.21
2022-11-28T12:57:51.303Z,1.45
2022-11-28T13:00:17.636Z,1.48
2022-11-28T13:02:44.128Z,1.47
2022-11-28T13:05:10.557Z,1.36
2022-11-28T13:07:36.942Z,1.57
2022-11-28T13:10:03.344Z,1.26
2022-11-28T13:12:29.675Z,1.18
2022-11-28T13:14:56.030Z,1.24
2022-11-28T13:17:22.612Z,1.14
2022-11-28T13:19:49.217Z,1.08
2022-11-28T13:22:15.765Z,1.15
2022-11-28T13:24:42.243Z,1.27
2022-11-28T13:27:08.622Z,1.28
2022-11-28T13:29:34.973Z,1.27
2022-11-28T13:32:02.365Z,1.33
2022-11-28T13:34:29.051Z,1.45
2022-11-28T13:39:44.019Z,1.40
2022-11-28T13:44:58.718Z,1.25
2022-11-28T13:47:25.053Z,1.27
2022-11-28T13:49:51.622Z,1.22
2022-11-28T13:52:19.025Z,1.25
2022-11-28T13:54:45.574Z,1.23
2022-11-28T13:57:12.156Z,1.17
2022-11-28T13:59:38.523Z,1.09
2022-11-28T14:02:05.278Z,1.10
2022-11-28T14:04:34.404Z,1.11
2022-11-28T14:07:00.826Z,1.38
2022-11-28T14:09:27.312Z,1.26
2022-11-28T14:11:53.743Z,1.28
2022-11-28T14:14:20.156Z,1.19
2022-11-28T14:16:51.587Z,1.25
2022-11-28T14:19:18.708Z,1.14
2022-11-28T14:21:45.151Z,1.20
2022-11-28T14:24:11.595Z,1.13
2022-11-28T14:26:38.278Z,1.32
2022-11-28T14:29:04.723Z,1.37
2022-11-28T14:31:31.220Z,1.26
2022-11-28T14:33:57.671Z,1.35
2022-11-28T14:36:24.045Z,1.35
2022-11-28T14:38:50.390Z,1.31
2022-11-28T14:41:16.722Z,1.34
2022-11-28T14:43:44.443Z,1.25
2022-11-28T14:46:10.816Z,1.41
2022-11-28T14:48:37.322Z,1.31
2022-11-28T14:51:03.713Z,1.23
2022-11-28T14:53:30.086Z,1.24
2022-11-28T14:55:56.650Z,1.24
2022-11-28T14:58:25.524Z,1.27
2022-11-28T15:00:52.051Z,1.24
2022-11-28T15:03:18.447Z,1.34
2022-11-28T15:05:44.905Z,1.32
2022-11-28T15:08:12.549Z,1.29
2022-11-28T15:10:39.128Z,1.29
2022-11-28T15:13:05.446Z,1.24
2022-11-28T15:15:31.924Z,1.34
2022-11-28T15:17:59.343Z,1.23
2022-11-28T15:20:25.695Z,1.24
2022-11-28T15:22:52.121Z,1.37
2022-11-28T15:25:18.500Z,1.19
2022-11-28T15:27:44.946Z,1.41
2022-11-28T15:30:11.396Z,1.52
2022-11-28T15:32:37.727Z,1.64
2022-11-28T15:35:07.918Z,1.70
2022-11-28T15:37:38.791Z,1.73
2022-11-28T15:40:07.911Z,1.67
2022-11-28T15:42:34.491Z,1.58
2022-11-28T15:45:00.919Z,1.83
2022-11-28T15:47:27.300Z,1.76
2022-11-28T15:49:54.092Z,1.84
2022-11-28T15:52:20.476Z,1.83
2022-11-28T15:54:47.323Z,1.89
2022-11-28T15:57:14.014Z,1.79
2022-11-28T15:59:40.387Z,1.77
2022-11-28T16:02:06.756Z,1.85
2022-11-28T16:04:33.131Z,1.79
2022-11-28T16:06:59.462Z,1.64
2022-11-28T16:09:25.896Z,1.75
2022-11-28T16:11:52.484Z,1.78
2022-11-28T16:14:18.926Z,1.63
2022-11-28T16:16:45.338Z,1.66
2022-11-28T16:19:11.766Z,1.67
2022-11-28T16:21:38.155Z,1.66
2022-11-28T16:24:05.334Z,1.61
2022-11-28T16:26:31.921Z,1.74
2022-11-28T16:28:58.303Z,1.80
2022-11-28T16:31:24.675Z,1.64
2022-11-28T16:33:52.301Z,1.58
2022-11-28T16:36:18.676Z,1.66
2022-11-28T16:38:45.073Z,1.89
2022-11-28T16:41:11.439Z,1.82
2022-11-28T16:43:38.034Z,1.71
2022-11-28T16:46:04.442Z,1.88
2022-11-28T16:48:30.858Z,1.80
2022-11-28T16:50:57.302Z,1.93
2022-11-28T16:53:23.888Z,2.09
2022-11-28T16:55:50.464Z,2.08
2022-11-28T16:58:16.902Z,1.96
2022-11-28T17:00:43.348Z,1.90
2022-11-28T17:03:12.922Z,1.99
2022-11-28T17:05:39.405Z,2.33
2022-11-28T17:08:05.856Z,2.12
2022-11-28T17:10:32.240Z,2.16
2022-11-28T17:12:58.666Z,2.04
2022-11-28T17:15:25.068Z,2.07
2022-11-28T17:17:53.755Z,2.15
2022-11-28T17:20:22.420Z,2.30
2022-11-28T17:22:51.405Z,2.18
2022-11-28T17:25:18.407Z,2.19
2022-11-28T17:27:44.933Z,2.01
2022-11-28T17:30:11.317Z,2.21
2022-11-28T17:32:37.759Z,2.04
2022-11-28T17:35:04.654Z,2.33
2022-11-28T17:37:31.189Z,2.51
2022-11-28T17:39:57.585Z,2.56
2022-11-28T17:42:25.427Z,3.07
2022-11-28T17:44:51.997Z,2.26
2022-11-28T17:47:18.618Z,2.07
2022-11-28T17:49:46.592Z,2.08
2022-11-28T17:52:13.351Z,1.86
2022-11-28T17:54:40.735Z,1.65
2022-11-28T17:57:07.324Z,1.85
2022-11-28T17:59:35.928Z,1.84
2022-11-28T18:02:04.725Z,2.04
2022-11-28T18:04:32.152Z,2.07
2022-11-28T18:06:58.841Z,2.10
2022-11-28T18:09:25.235Z,1.93
2022-11-28T18:11:53.161Z,1.91
2022-11-28T18:14:20.030Z,1.80
2022-11-28T18:16:46.692Z,1.99
2022-11-28T18:19:13.098Z,2.23
2022-11-28T18:21:39.551Z,1.89
2022-11-28T18:24:05.923Z,1.98
2022-11-28T18:26:33.308Z,2.25
2022-11-28T18:28:59.687Z,2.34
2022-11-28T18:31:28.660Z,2.30
2022-11-28T18:34:00.195Z,1.77
2022-11-28T18:36:26.891Z,1.95
2022-11-28T18:38:53.386Z,1.70
2022-11-28T18:41:19.806Z,1.35
2022-11-28T18:43:46.220Z,1.37
2022-11-28T18:46:12.622Z,1.29
2022-11-28T18:48:39.035Z,1.31
2022-11-28T18:51:05.376Z,1.18
2022-11-28T18:53:31.926Z,1.15
2022-11-28T18:55:58.308Z,1.15
2022-11-28T18:58:24.790Z,1.15
2022-11-28T19:00:51.188Z,1.21
2022-11-28T19:03:17.677Z,1.34
2022-11-28T19:05:46.345Z,1.58
2022-11-28T19:08:13.160Z,1.44
2022-11-28T19:10:39.571Z,1.21
2022-11-28T19:13:06.942Z,1.07
2022-11-28T19:15:33.372Z,1.18
2022-11-28T19:17:59.745Z,1.03
2022-11-28T19:20:26.121Z,1.00
2022-11-28T19:22:52.497Z,0.98
2022-11-28T19:25:18.853Z,0.94
2022-11-28T19:27:45.225Z,0.93
2022-11-28T19:30:11.772Z,1.04
2022-11-28T19:32:38.115Z,0.96
2022-11-28T19:35:04.583Z,1.06
2022-11-28T19:37:30.966Z,1.11
2022-11-28T19:40:02.300Z,1.13
2022-11-28T19:42:29.453Z,1.15
2022-11-28T19:44:55.902Z,1.03
2022-11-28T19:47:22.234Z,1.19
2022-11-28T19:49:48.548Z,1.16
2022-11-28T19:52:14.959Z,1.17
2022-11-28T19:54:41.782Z,1.39
2022-11-28T19:57:08.351Z,1.33
2022-11-28T19:59:34.951Z,1.46
2022-11-28T20:02:01.546Z,1.37
2022-11-28T20:04:28.114Z,1.40
2022-11-28T20:06:54.452Z,1.46
2022-11-28T20:09:21.858Z,1.78
2022-11-28T20:11:48.416Z,1.77
2022-11-28T20:14:14.969Z,1.57
2022-11-28T20:16:46.771Z,1.78
2022-11-28T20:19:13.219Z,2.17
2022-11-28T20:21:39.592Z,1.86
2022-11-28T20:24:06.966Z,1.77
2022-11-28T20:26:33.324Z,1.74
2022-11-28T20:28:59.662Z,1.82
2022-11-28T20:31:26.544Z,1.60
2022-11-28T20:33:53.025Z,1.80
2022-11-28T20:36:19.554Z,1.76
2022-11-28T20:38:46.214Z,1.63
2022-11-28T20:41:12.595Z,1.67
2022-11-28T20:43:39.004Z,1.82
2022-11-28T20:46:05.476Z,1.70
2022-11-28T20:48:31.904Z,1.56
2022-11-28T20:50:58.259Z,1.63
2022-11-28T20:53:26.940Z,1.56
2022-11-28T20:55:53.523Z,1.80
2022-11-28T20:58:20.111Z,1.68
2022-11-28T21:00:46.566Z,2.03
2022-11-28T21:03:13.068Z,2.22
2022-11-28T21:05:39.934Z,2.12
2022-11-28T21:08:06.401Z,2.23
2022-11-28T21:10:33.042Z,1.90
2022-11-28T21:12:59.407Z,1.78
2022-11-28T21:15:25.786Z,1.72
2022-11-28T21:17:52.163Z,1.59
2022-11-28T21:20:18.550Z,1.57
2022-11-28T21:22:45.711Z,1.64
2022-11-28T21:25:12.102Z,1.59
2022-11-28T21:27:38.452Z,1.46
2022-11-28T21:30:04.806Z,1.76
2022-11-28T21:32:31.377Z,1.39
2022-11-28T21:35:03.913Z,1.40
2022-11-28T21:37:30.893Z,1.58
2022-11-28T21:39:57.362Z,1.49
2022-11-28T21:42:23.691Z,1.43
2022-11-28T21:44:50.037Z,1.43
2022-11-28T21:47:16.401Z,1.40
2022-11-28T21:49:43.127Z,1.32
2022-11-28T21:52:09.738Z,1.50
2022-11-28T21:54:36.132Z,1.44
2022-11-28T21:57:04.571Z,1.58
2022-11-28T21:59:30.895Z,1.43
2022-11-28T22:01:57.308Z,1.49
2022-11-28T22:04:23.709Z,1.62
2022-11-28T22:06:50.082Z,2.13
2022-11-28T22:09:16.564Z,1.82
2022-11-28T22:11:43.033Z,2.02
2022-11-28T22:14:09.389Z,2.04
2022-11-28T22:16:35.821Z,2.21
2022-11-28T22:19:02.266Z,2.60
2022-11-28T22:21:52.421Z,2.64
2022-11-28T22:24:14.920Z,2.63
2022-11-28T22:26:41.313Z,2.52
2022-11-28T22:29:07.718Z,2.42
2022-11-28T22:31:34.171Z,2.39
2022-11-28T22:34:00.520Z,2.35
2022-11-28T22:36:26.911Z,2.07
2022-11-28T22:38:53.819Z,2.06
2022-11-28T22:41:27.863Z,1.81
2022-11-28T22:43:55.419Z,1.76
2022-11-28T22:46:21.787Z,2.00
2022-11-28T22:48:48.206Z,1.95
2022-11-28T22:51:14.765Z,2.00
2022-11-28T22:53:41.381Z,2.20
2022-11-28T22:56:07.922Z,2.04
2022-11-28T22:58:39.333Z,1.78
2022-11-28T23:01:08.841Z,1.71
2022-11-28T23:03:35.458Z,1.67
2022-11-28T23:06:02.038Z,1.62
2022-11-28T23:08:28.482Z,1.56
2022-11-28T23:10:54.890Z,1.65
2022-11-28T23:13:21.229Z,1.61
2022-11-28T23:15:52.666Z,1.60
2022-11-28T23:18:19.276Z,1.78
2022-11-28T23:20:45.650Z,1.72
2022-11-28T23:23:12.034Z,1.56
2022-11-28T23:25:38.379Z,1.44
2022-11-28T23:28:04.714Z,1.45
2022-11-28T23:30:31.439Z,1.01
2022-11-28T23:32:57.811Z,1.02
2022-11-28T23:35:24.432Z,1.08
2022-11-28T23:37:50.867Z,1.21
2022-11-28T23:40:17.526Z,1.13
2022-11-28T23:42:43.893Z,1.23
2022-11-28T23:45:10.339Z,1.07
2022-11-28T23:47:36.712Z,1.00
2022-11-28T23:50:03.054Z,1.04
2022-11-28T23:52:29.421Z,1.10
2022-11-28T23:54:55.799Z,1.13
2022-11-28T23:57:22.132Z,1.01
2022-11-28T23:59:48.578Z,1.13
